Aircraft
UPR1017 PR-QAD Citation
SBBR
Presidente Juscelino Kubitschek International Airport
SBSV
Deputado Luiz Eduardo Magalhães International Airport
Pilot:: Alex
Aircraft:: Cessna Citation CJ4
Alternate: SBAR
Network: poscon
FLIGHT DETAILS
Distance: 586nm Duration 01h 32m
Cruise Speed: Flight Level: 33000
Validation: Validated Type Charter
Flight Fuel
ZFW: 4505
Block Fuel/Initial FOB: 2398
Flight Fuel: 1049
Cargo
Passengers: 4
Cargo: 84
ROUTE
ROUTE: DCT
REMARKS:
DATE
Date: 26-08-28
Departure Time: 1027
Cargo: 84
FLIGHT DETAILS
Crashed: No
Validator Comments: Validado por Rafael
Flight Rating: 99
LANDING ANALYSIS
Landing wind: 351º/6 kt
Landing heading: 164º
Landing VS:: -210 ft/min
Landing IAS:: 98 kt
Landing Force G: 1.2 G
Landing Bank: 0
Landing Pitch: -2
Landing Flaps: 100
Navigation Lights: ON
Landing Lights: ON
Beacon Lights: ON
Strobe Lights: ON
viserfly

ALTITUDE CHART

viserfly

MAIN EVENTS

DATE EVENT IAS ALTITUDE
2026-08-28 10:26:12 FLYacars version 1.3.6 0 3472
2026-08-28 10:26:12 Aircraft boarding in progress 0 3472
2026-08-28 10:26:13 FLAPS 50% 0 3472
2026-08-28 10:26:13 Navigation Lights ON 0 3472
2026-08-28 10:26:13 Beacon Lights ON 0 3472
2026-08-28 10:26:13 Strobe Lights ON 0 3472
2026-08-28 10:26:13 Landing Lights ON 0 3472
2026-08-28 10:26:13 Starting Engine 2 0 3472
2026-08-28 10:26:13 Starting Engine 1 0 3472
2026-08-28 10:26:19 Taxi Lights ON 0 3472
2026-08-28 10:26:39 Aircraft taxiing to runway 2 3473
2026-08-28 10:27:46 Detected Take-off roll, HDG 115, IAS 115kt, GS 123kt, G-force 1.0g, Pitch -4.7deg, Bank -0.7deg, Wind 033/02kt, Temp 18°C 115 3472
2026-08-28 10:27:46 Airborne 115 3472
2026-08-28 10:27:46 Incorrect altimeter settings on takeoff 115 3472
2026-08-28 10:27:50 Gear UP, IAS 131kt, GS 139kt, ALT 30ft AGL 131 3497
2026-08-28 10:27:59 FLAPS 0% 160kt, ALT 3817ft 160 3817
2026-08-28 10:29:35 Landing lights ON above 10000fts 217 11003
2026-08-28 11:58:19 FLAPS 50% 199kt, ALT 1617ft 199 1617
2026-08-28 11:58:32 Gear DOWN, IAS 175kt, GS 169kt, ALT 1354ft AGL 175 1580
2026-08-28 11:59:12 FLAPS 100% 128kt, ALT 778ft 128 778
2026-08-28 11:59:58 Landed at destination with a landing rate of -210fpm, G-force 1.2g, Pitch -2.4deg, Bank -0.2deg, HDG 164deg, IAS 98kt, GS 106kt, Wind 351/06kt, Temp 25°C 98 42
2026-08-28 11:59:58 Incorrect altimeter settings on landing 98 42
2026-08-28 12:00:11 Aircraft taxiing to apron 17 29
2026-08-28 12:00:48 FLAPS 50% 14 29
2026-08-28 12:00:48 FLAPS 0% 14 29
2026-08-28 12:01:19 Navigation Lights OFF 5 29
2026-08-28 12:01:19 Beacon Lights OFF 5 29
2026-08-28 12:01:20 Strobe Lights OFF 5 29
2026-08-28 12:01:20 Landing Lights OFF 5 29
2026-08-28 12:01:20 Taxi Lights OFF 5 29
2026-08-28 12:01:46 Aircraft at gate/stand, ground services are moving into position, disembarkation has begun. Remaining FOB 1349kg FLYacars v1.3.6 4 29
viserfly

ACARS DATA

DATE IAS GS ALTITUDE FUEL CONSUMED OAT FLIGHT STATUS
2026-08-28 10:26:42 8 11 3474 2 18 TAXI TO RUNWAY
2026-08-28 10:27:12 1 0 3479 4 18 TAXI TO RUNWAY
2026-08-28 10:27:42 93 99 3475 12 18 TAKEOFF
2026-08-28 10:28:12 196 197 4470 25 20 INITIAL CLIMB
2026-08-28 10:28:42 211 226 6834 38 17 CLIMB
2026-08-28 10:29:12 209 242 9338 51 10 CLIMB
2026-08-28 10:29:42 225 275 11400 64 5 CLIMB
2026-08-28 10:30:12 226 286 13822 77 -1 CLIMB
2026-08-28 10:30:42 227 294 16234 90 -2 CLIMB
2026-08-28 10:31:12 227 304 18450 103 -3 CLIMB
2026-08-28 10:31:42 226 315 20411 115 -6 CLIMB
2026-08-28 10:32:12 226 327 22252 127 -10 CLIMB
2026-08-28 10:32:42 226 340 23971 138 -14 CLIMB
2026-08-28 10:33:12 227 352 25548 150 -18 CLIMB
2026-08-28 10:33:42 227 364 27049 161 -22 CLIMB
2026-08-28 10:34:12 227 375 28449 171 -26 CLIMB
2026-08-28 10:34:42 225 384 29840 182 -29 CLIMB
2026-08-28 10:35:12 232 398 30186 189 -30 ENROUTE
2026-08-28 10:35:42 236 405 30197 195 -30 ENROUTE
2026-08-28 10:36:12 241 411 30199 201 -30 ENROUTE
2026-08-28 10:36:42 244 416 30197 207 -30 ENROUTE
2026-08-28 10:37:12 246 420 30196 213 -30 ENROUTE
2026-08-28 10:37:42 248 422 30198 219 -30 ENROUTE
2026-08-28 10:38:12 249 423 30191 225 -30 ENROUTE
2026-08-28 10:38:42 250 425 30190 231 -30 ENROUTE
2026-08-28 10:39:12 251 426 30189 237 -30 ENROUTE
2026-08-28 10:39:42 251 426 30189 243 -30 ENROUTE
2026-08-28 10:40:12 252 427 30191 249 -30 ENROUTE
2026-08-28 10:40:42 252 427 30192 255 -30 ENROUTE
2026-08-28 10:41:12 252 428 30190 261 -30 ENROUTE
2026-08-28 10:41:42 252 428 30191 267 -30 ENROUTE
2026-08-28 10:42:12 252 427 30192 273 -30 ENROUTE
2026-08-28 10:42:42 251 428 30186 279 -30 ENROUTE
2026-08-28 10:43:12 252 428 30182 285 -30 ENROUTE
2026-08-28 10:43:42 252 428 30184 291 -30 ENROUTE
2026-08-28 10:44:12 252 429 30183 297 -30 ENROUTE
2026-08-28 10:44:42 253 429 30177 303 -30 ENROUTE
2026-08-28 10:45:12 253 429 30178 309 -30 ENROUTE
2026-08-28 10:45:42 253 429 30177 315 -30 ENROUTE
2026-08-28 10:46:12 253 429 30179 321 -30 ENROUTE
2026-08-28 10:46:42 253 429 30180 327 -30 ENROUTE
2026-08-28 10:47:12 253 429 30180 333 -30 ENROUTE
2026-08-28 10:47:42 253 428 30181 339 -30 ENROUTE
2026-08-28 10:48:12 253 429 30175 345 -31 ENROUTE
2026-08-28 10:48:42 253 428 30176 351 -31 ENROUTE
2026-08-28 10:49:12 253 428 30175 357 -31 ENROUTE
2026-08-28 10:49:42 253 428 30175 363 -31 ENROUTE
2026-08-28 10:50:12 253 428 30175 369 -31 ENROUTE
2026-08-28 10:50:42 253 428 30176 375 -31 ENROUTE
2026-08-28 10:51:12 253 428 30166 381 -31 ENROUTE
2026-08-28 10:51:42 253 428 30167 387 -31 ENROUTE
2026-08-28 10:52:12 253 428 30167 393 -31 ENROUTE
2026-08-28 10:52:42 253 428 30161 399 -31 ENROUTE
2026-08-28 10:53:12 253 429 30162 405 -31 ENROUTE
2026-08-28 10:53:42 253 429 30161 411 -31 ENROUTE
2026-08-28 10:54:12 253 428 30161 417 -31 ENROUTE
2026-08-28 10:54:42 253 428 30161 423 -31 ENROUTE
2026-08-28 10:55:12 253 429 30162 429 -31 ENROUTE
2026-08-28 10:55:42 253 429 30162 435 -31 ENROUTE
2026-08-28 10:56:12 253 429 30156 441 -31 ENROUTE
2026-08-28 10:56:42 253 429 30156 447 -31 ENROUTE
2026-08-28 10:57:12 253 428 30156 453 -31 ENROUTE
2026-08-28 10:57:42 252 429 30156 459 -31 ENROUTE
2026-08-28 10:58:12 253 429 30157 465 -31 ENROUTE
2026-08-28 10:58:42 253 429 30156 471 -31 ENROUTE
2026-08-28 10:59:12 253 429 30152 478 -31 ENROUTE
2026-08-28 10:59:42 253 430 30155 484 -31 ENROUTE
2026-08-28 11:00:12 253 430 30153 490 -31 ENROUTE
2026-08-28 11:00:42 253 429 30154 496 -31 ENROUTE
2026-08-28 11:01:12 253 429 30154 502 -31 ENROUTE
2026-08-28 11:01:42 253 429 30154 508 -31 ENROUTE
2026-08-28 11:02:12 253 429 30154 514 -31 ENROUTE
2026-08-28 11:02:42 253 429 30151 520 -31 ENROUTE
2026-08-28 11:03:12 253 429 30151 526 -31 ENROUTE
2026-08-28 11:03:42 253 431 30148 532 -31 ENROUTE
2026-08-28 11:04:12 253 436 30146 538 -31 ENROUTE
2026-08-28 11:04:42 253 438 30147 544 -31 ENROUTE
2026-08-28 11:05:12 253 437 30148 550 -31 ENROUTE
2026-08-28 11:05:42 253 438 30149 556 -31 ENROUTE
2026-08-28 11:06:12 253 438 30149 562 -31 ENROUTE
2026-08-28 11:06:42 253 438 30150 568 -31 ENROUTE
2026-08-28 11:07:12 253 438 30150 574 -31 ENROUTE
2026-08-28 11:07:42 253 439 30141 580 -31 ENROUTE
2026-08-28 11:08:12 253 439 30142 586 -31 ENROUTE
2026-08-28 11:08:42 254 439 30148 592 -31 ENROUTE
2026-08-28 11:09:12 254 438 30149 598 -31 ENROUTE
2026-08-28 11:09:42 253 438 30149 604 -31 ENROUTE
2026-08-28 11:10:12 253 438 30149 610 -31 ENROUTE
2026-08-28 11:10:42 253 437 30147 616 -31 ENROUTE
2026-08-28 11:11:12 252 437 30149 622 -31 ENROUTE
2026-08-28 11:11:42 252 437 30149 628 -31 ENROUTE
2026-08-28 11:12:12 254 438 30149 634 -31 ENROUTE
2026-08-28 11:12:42 253 437 30149 640 -31 ENROUTE
2026-08-28 11:13:12 253 437 30150 646 -31 ENROUTE
2026-08-28 11:13:42 253 437 30150 652 -31 ENROUTE
2026-08-28 11:14:12 253 437 30149 658 -31 ENROUTE
2026-08-28 11:14:42 253 438 30150 664 -31 ENROUTE
2026-08-28 11:15:12 252 437 30151 670 -31 ENROUTE
2026-08-28 11:15:42 252 438 30149 676 -31 ENROUTE
2026-08-28 11:16:12 252 437 30156 682 -31 ENROUTE
2026-08-28 11:16:42 252 437 30153 688 -31 ENROUTE
2026-08-28 11:17:12 252 437 30155 694 -31 ENROUTE
2026-08-28 11:17:42 252 438 30154 700 -31 ENROUTE
2026-08-28 11:18:12 252 438 30154 706 -31 ENROUTE
2026-08-28 11:18:42 252 438 30154 712 -31 ENROUTE
2026-08-28 11:19:12 252 438 30154 718 -31 ENROUTE
2026-08-28 11:19:42 253 438 30154 724 -30 ENROUTE
2026-08-28 11:20:12 252 439 30155 730 -30 ENROUTE
2026-08-28 11:20:42 252 439 30155 736 -30 ENROUTE
2026-08-28 11:21:12 252 439 30156 742 -30 ENROUTE
2026-08-28 11:21:42 252 440 30146 748 -30 ENROUTE
2026-08-28 11:22:12 252 440 30146 754 -30 ENROUTE
2026-08-28 11:22:42 252 440 30147 760 -30 ENROUTE
2026-08-28 11:23:12 253 441 30148 766 -30 ENROUTE
2026-08-28 11:23:42 252 441 30146 772 -30 ENROUTE
2026-08-28 11:24:12 252 441 30147 778 -30 ENROUTE
2026-08-28 11:24:42 252 442 30145 784 -30 ENROUTE
2026-08-28 11:25:12 252 442 30146 790 -30 ENROUTE
2026-08-28 11:25:42 252 442 30132 796 -30 ENROUTE
2026-08-28 11:26:12 252 443 30133 802 -30 ENROUTE
2026-08-28 11:26:42 253 443 30133 808 -30 ENROUTE
2026-08-28 11:27:12 253 442 30138 814 -30 ENROUTE
2026-08-28 11:27:42 253 442 30139 820 -30 ENROUTE
2026-08-28 11:28:12 253 442 30138 826 -30 ENROUTE
2026-08-28 11:28:42 253 441 30139 832 -30 ENROUTE
2026-08-28 11:29:12 252 441 30138 838 -30 ENROUTE
2026-08-28 11:29:42 252 442 30138 844 -30 ENROUTE
2026-08-28 11:30:12 252 442 30136 850 -30 ENROUTE
2026-08-28 11:30:42 254 441 30138 856 -30 ENROUTE
2026-08-28 11:31:12 253 440 30148 862 -30 ENROUTE
2026-08-28 11:31:42 253 440 30150 868 -30 ENROUTE
2026-08-28 11:32:12 254 440 30151 874 -30 ENROUTE
2026-08-28 11:32:42 253 440 30151 880 -30 ENROUTE
2026-08-28 11:33:12 253 440 30143 886 -30 ENROUTE
2026-08-28 11:33:42 253 440 30143 892 -30 ENROUTE
2026-08-28 11:34:12 253 439 30143 898 -30 ENROUTE
2026-08-28 11:34:42 255 439 30150 904 -30 ENROUTE
2026-08-28 11:35:12 254 438 30151 910 -30 ENROUTE
2026-08-28 11:35:42 253 438 30151 916 -30 ENROUTE
2026-08-28 11:36:12 253 438 30152 922 -30 ENROUTE
2026-08-28 11:36:42 253 438 30146 928 -31 ENROUTE
2026-08-28 11:37:12 253 437 30144 934 -31 ENROUTE
2026-08-28 11:37:42 253 437 30142 940 -31 ENROUTE
2026-08-28 11:38:12 253 437 30142 946 -31 ENROUTE
2026-08-28 11:38:42 241 419 29817 950 -30 DESCENT
2026-08-28 11:39:12 229 395 28454 952 -26 DESCENT
2026-08-28 11:39:42 222 378 27093 954 -23 DESCENT
2026-08-28 11:40:12 218 366 25732 956 -20 DESCENT
2026-08-28 11:40:42 216 358 24374 958 -17 DESCENT
2026-08-28 11:41:12 217 350 23027 959 -13 DESCENT
2026-08-28 11:41:42 218 342 21675 961 -10 DESCENT
2026-08-28 11:42:12 219 334 20336 963 -7 DESCENT
2026-08-28 11:42:42 222 327 18997 965 -4 DESCENT
2026-08-28 11:43:12 223 319 17652 966 -2 DESCENT
2026-08-28 11:43:42 225 310 16315 968 -1 DESCENT
2026-08-28 11:44:12 226 300 14975 970 0 DESCENT
2026-08-28 11:44:42 227 291 13633 971 1 DESCENT
2026-08-28 11:45:12 227 283 12294 973 4 DESCENT
2026-08-28 11:45:42 228 277 10952 974 6 DESCENT
2026-08-28 11:46:12 230 270 9612 976 8 DESCENT
2026-08-28 11:46:42 232 263 8273 977 10 DESCENT
2026-08-28 11:47:12 233 256 6935 978 11 DESCENT
2026-08-28 11:47:42 233 249 5594 979 13 DESCENT
2026-08-28 11:48:12 234 243 4252 981 15 DESCENT
2026-08-28 11:48:42 233 237 2913 982 17 DESCENT
2026-08-28 11:49:12 218 220 2674 983 18 ENROUTE
2026-08-28 11:49:42 226 229 2663 986 18 ENROUTE
2026-08-28 11:50:12 236 239 2669 990 18 ENROUTE
2026-08-28 11:50:42 243 245 2684 994 18 ENROUTE
2026-08-28 11:51:12 245 249 2680 997 18 ENROUTE
2026-08-28 11:51:42 249 250 2682 1000 18 ENROUTE
2026-08-28 11:52:12 258 261 2668 1004 18 ENROUTE
2026-08-28 11:52:42 254 259 2667 1007 18 ENROUTE
2026-08-28 11:53:12 253 256 2672 1011 18 ENROUTE
2026-08-28 11:53:42 254 255 2673 1014 18 ENROUTE
2026-08-28 11:54:12 251 253 2674 1018 18 ENROUTE
2026-08-28 11:54:42 250 252 2673 1021 18 ENROUTE
2026-08-28 11:55:12 248 250 2493 1024 18 DESCENT
2026-08-28 11:55:42 255 256 2150 1027 19 DESCENT
2026-08-28 11:56:12 258 259 1799 1030 20 DESCENT
2026-08-28 11:56:42 212 209 1717 1031 20 DESCENT
2026-08-28 11:57:12 211 212 964 1033 22 DESCENT
2026-08-28 11:57:42 241 239 1414 1038 21 DESCENT
2026-08-28 11:58:12 210 206 1699 1040 20 DESCENT
2026-08-28 11:58:42 157 155 1379 1041 21 APPROACH
2026-08-28 11:59:12 128 134 778 1042 23 ON FINAL
2026-08-28 11:59:42 112 121 274 1044 24 ON FINAL
2026-08-28 12:00:12 11 17 29 1045 25 TAXI TO APRON
2026-08-28 12:00:42 17 18 29 1048 25 TAXI TO APRON
2026-08-28 12:01:12 19 13 28 1049 25 TAXI TO APRON
2026-08-28 12:01:42 4 0 29 1049 25 TAXI TO APRON
  • Join our VA!

    It has been 11 years of great learning, friendships, and stories.

  • Sign up now!